sensor_id;sensor_type;location;lat;lon;timestamp;temperature;humidity
25512;DHT22;13414;44.534;18.700;2023-11-19T08:07:14;4.20;99.90
25512;DHT22;13414;44.534;18.700;2023-11-19T08:13:17;4.40;1.00
25512;DHT22;13414;44.534;18.700;2023-11-19T08:15:45;4.40;7.20
25512;DHT22;13414;44.534;18.700;2023-11-19T08:18:14;4.60;99.90
25512;DHT22;13414;44.534;18.700;2023-11-19T08:20:42;4.80;1.00
25512;DHT22;13414;44.534;18.700;2023-11-19T08:23:12;4.90;1.00
25512;DHT22;13414;44.534;18.700;2023-11-19T08:25:39;4.70;1.00
25512;DHT22;13414;44.534;18.700;2023-11-19T08:28:07;4.90;1.00
25512;DHT22;13414;44.534;18.700;2023-11-19T08:30:35;5.20;1.00
25512;DHT22;13414;44.534;18.700;2023-11-19T08:33:03;5.50;99.90
25512;DHT22;13414;44.534;18.700;2023-11-19T08:35:32;5.80;1.00
25512;DHT22;13414;44.534;18.700;2023-11-19T08:37:59;6.10;1.00
25512;DHT22;13414;44.534;18.700;2023-11-19T08:40:29;6.30;61.40
25512;DHT22;13414;44.534;18.700;2023-11-19T08:42:57;6.30;1.00
25512;DHT22;13414;44.534;18.700;2023-11-19T08:45:25;6.50;99.90
25512;DHT22;13414;44.534;18.700;2023-11-19T08:47:53;6.60;99.00
25512;DHT22;13414;44.534;18.700;2023-11-19T08:50:20;6.60;99.90
25512;DHT22;13414;44.534;18.700;2023-11-19T08:52:48;6.60;1.00
25512;DHT22;13414;44.534;18.700;2023-11-19T08:55:16;6.60;99.90
25512;DHT22;13414;44.534;18.700;2023-11-19T09:00:56;6.90;1.00
25512;DHT22;13414;44.534;18.700;2023-11-19T09:03:23;7.20;1.00
25512;DHT22;13414;44.534;18.700;2023-11-19T09:05:52;7.50;99.90
25512;DHT22;13414;44.534;18.700;2023-11-19T09:08:20;7.80;99.90
25512;DHT22;13414;44.534;18.700;2023-11-19T09:10:48;8.00;1.00
25512;DHT22;13414;44.534;18.700;2023-11-19T09:13:16;8.00;99.90
25512;DHT22;13414;44.534;18.700;2023-11-19T09:15:44;7.80;99.90
25512;DHT22;13414;44.534;18.700;2023-11-19T09:18:12;7.80;99.90
25512;DHT22;13414;44.534;18.700;2023-11-19T09:20:40;7.90;1.00
25512;DHT22;13414;44.534;18.700;2023-11-19T09:23:08;8.00;1.00
25512;DHT22;13414;44.534;18.700;2023-11-19T09:25:37;8.10;1.00
25512;DHT22;13414;44.534;18.700;2023-11-19T09:28:04;8.20;99.90
25512;DHT22;13414;44.534;18.700;2023-11-19T09:30:32;8.30;99.90
25512;DHT22;13414;44.534;18.700;2023-11-19T09:33:00;8.30;99.90
25512;DHT22;13414;44.534;18.700;2023-11-19T09:35:29;8.30;99.90
25512;DHT22;13414;44.534;18.700;2023-11-19T09:37:57;8.40;99.90
25512;DHT22;13414;44.534;18.700;2023-11-19T09:40:25;8.50;28.50
25512;DHT22;13414;44.534;18.700;2023-11-19T09:43:00;8.60;52.40
25512;DHT22;13414;44.534;18.700;2023-11-19T09:45:28;8.60;37.40
25512;DHT22;13414;44.534;18.700;2023-11-19T09:47:57;8.80;31.40
25512;DHT22;13414;44.534;18.700;2023-11-19T09:50:29;8.60;1.00
25512;DHT22;13414;44.534;18.700;2023-11-19T09:52:58;8.70;1.00
25512;DHT22;13414;44.534;18.700;2023-11-19T09:55:27;8.80;1.00
25512;DHT22;13414;44.534;18.700;2023-11-19T09:57:55;8.90;1.00
25512;DHT22;13414;44.534;18.700;2023-11-19T10:00:26;9.00;1.00
25512;DHT22;13414;44.534;18.700;2023-11-19T10:02:55;9.00;1.00
25512;DHT22;13414;44.534;18.700;2023-11-19T10:05:24;9.20;1.00
25512;DHT22;13414;44.534;18.700;2023-11-19T10:07:53;9.30;1.00
25512;DHT22;13414;44.534;18.700;2023-11-19T10:10:21;9.50;1.00
25512;DHT22;13414;44.534;18.700;2023-11-19T10:12:51;9.70;1.00
25512;DHT22;13414;44.534;18.700;2023-11-19T10:15:21;9.70;1.00
25512;DHT22;13414;44.534;18.700;2023-11-19T10:17:54;9.70;1.00
25512;DHT22;13414;44.534;18.700;2023-11-19T10:20:22;9.70;1.00
25512;DHT22;13414;44.534;18.700;2023-11-19T10:22:54;9.70;1.00
25512;DHT22;13414;44.534;18.700;2023-11-19T10:25:25;9.70;1.00
25512;DHT22;13414;44.534;18.700;2023-11-19T10:27:53;9.80;1.00
25512;DHT22;13414;44.534;18.700;2023-11-19T10:30:23;9.80;1.00
25512;DHT22;13414;44.534;18.700;2023-11-19T10:33:06;9.70;1.00
25512;DHT22;13414;44.534;18.700;2023-11-19T10:35:35;9.60;1.00
25512;DHT22;13414;44.534;18.700;2023-11-19T10:38:15;9.50;1.00
25512;DHT22;13414;44.534;18.700;2023-11-19T10:40:43;9.60;1.00
25512;DHT22;13414;44.534;18.700;2023-11-19T10:43:12;9.70;1.00
25512;DHT22;13414;44.534;18.700;2023-11-19T10:45:41;9.80;1.00
25512;DHT22;13414;44.534;18.700;2023-11-19T10:48:09;10.10;1.00
25512;DHT22;13414;44.534;18.700;2023-11-19T10:50:40;10.40;1.00
25512;DHT22;13414;44.534;18.700;2023-11-19T10:53:09;10.70;1.00
25512;DHT22;13414;44.534;18.700;2023-11-19T10:55:41;10.70;1.00
25512;DHT22;13414;44.534;18.700;2023-11-19T10:58:09;10.70;1.00
25512;DHT22;13414;44.534;18.700;2023-11-19T11:00:38;10.60;1.00
25512;DHT22;13414;44.534;18.700;2023-11-19T11:03:11;10.30;1.00
25512;DHT22;13414;44.534;18.700;2023-11-19T11:05:43;10.10;1.00
25512;DHT22;13414;44.534;18.700;2023-11-19T11:08:11;10.10;1.00
25512;DHT22;13414;44.534;18.700;2023-11-19T11:10:44;9.90;1.00
25512;DHT22;13414;44.534;18.700;2023-11-19T11:13:13;9.80;1.00
25512;DHT22;13414;44.534;18.700;2023-11-19T11:15:41;9.80;1.00
25512;DHT22;13414;44.534;18.700;2023-11-19T11:18:13;9.90;1.00
25512;DHT22;13414;44.534;18.700;2023-11-19T11:20:41;10.00;1.00
25512;DHT22;13414;44.534;18.700;2023-11-19T11:26:34;10.00;1.00
25512;DHT22;13414;44.534;18.700;2023-11-19T11:29:05;10.20;1.00
25512;DHT22;13414;44.534;18.700;2023-11-19T11:31:43;10.20;1.00
25512;DHT22;13414;44.534;18.700;2023-11-19T11:34:42;10.10;1.00
25512;DHT22;13414;44.534;18.700;2023-11-19T11:37:18;10.20;1.00
25512;DHT22;13414;44.534;18.700;2023-11-19T11:39:46;10.30;1.00
25512;DHT22;13414;44.534;18.700;2023-11-19T11:42:48;10.30;1.00
25512;DHT22;13414;44.534;18.700;2023-11-19T11:45:35;10.40;1.00
25512;DHT22;13414;44.534;18.700;2023-11-19T11:48:31;10.50;1.00
25512;DHT22;13414;44.534;18.700;2023-11-19T11:51:19;10.60;1.00
25512;DHT22;13414;44.534;18.700;2023-11-19T11:55:09;10.70;1.00
25512;DHT22;13414;44.534;18.700;2023-11-19T11:57:39;10.70;1.00
25512;DHT22;13414;44.534;18.700;2023-11-19T12:00:11;11.00;1.00
25512;DHT22;13414;44.534;18.700;2023-11-19T12:02:52;11.00;1.00
25512;DHT22;13414;44.534;18.700;2023-11-19T12:05:21;11.00;1.00
25512;DHT22;13414;44.534;18.700;2023-11-19T12:07:55;11.10;1.00
25512;DHT22;13414;44.534;18.700;2023-11-19T12:10:29;11.20;1.00
25512;DHT22;13414;44.534;18.700;2023-11-19T12:13:07;11.30;1.00
25512;DHT22;13414;44.534;18.700;2023-11-19T12:16:08;11.50;1.00
25512;DHT22;13414;44.534;18.700;2023-11-19T12:19:03;11.60;1.00
25512;DHT22;13414;44.534;18.700;2023-11-19T12:21:32;11.70;1.00
25512;DHT22;13414;44.534;18.700;2023-11-19T12:24:03;11.70;1.00
25512;DHT22;13414;44.534;18.700;2023-11-19T12:26:43;11.80;1.00
25512;DHT22;13414;44.534;18.700;2023-11-19T12:32:24;12.00;1.00
25512;DHT22;13414;44.534;18.700;2023-11-19T12:35:06;12.10;1.00
25512;DHT22;13414;44.534;18.700;2023-11-19T12:37:42;12.10;1.00
25512;DHT22;13414;44.534;18.700;2023-11-19T12:40:18;12.00;1.00
25512;DHT22;13414;44.534;18.700;2023-11-19T12:42:47;12.00;1.00
25512;DHT22;13414;44.534;18.700;2023-11-19T12:45:15;12.20;1.00
25512;DHT22;13414;44.534;18.700;2023-11-19T12:47:50;12.40;1.00
25512;DHT22;13414;44.534;18.700;2023-11-19T12:50:50;12.60;1.00
25512;DHT22;13414;44.534;18.700;2023-11-19T12:53:18;12.70;1.00
25512;DHT22;13414;44.534;18.700;2023-11-19T12:55:46;12.70;1.00
25512;DHT22;13414;44.534;18.700;2023-11-19T12:58:29;12.80;1.00
25512;DHT22;13414;44.534;18.700;2023-11-19T13:01:02;12.80;1.00
25512;DHT22;13414;44.534;18.700;2023-11-19T13:03:33;12.80;1.00
25512;DHT22;13414;44.534;18.700;2023-11-19T13:06:05;12.80;1.00
25512;DHT22;13414;44.534;18.700;2023-11-19T13:08:37;12.80;1.00
25512;DHT22;13414;44.534;18.700;2023-11-19T13:11:10;12.90;1.00
25512;DHT22;13414;44.534;18.700;2023-11-19T13:13:54;12.90;1.00
25512;DHT22;13414;44.534;18.700;2023-11-19T13:16:26;12.90;1.00
25512;DHT22;13414;44.534;18.700;2023-11-19T13:18:56;12.80;1.00
25512;DHT22;13414;44.534;18.700;2023-11-19T13:21:30;12.80;1.00
25512;DHT22;13414;44.534;18.700;2023-11-19T13:24:17;12.60;1.00
25512;DHT22;13414;44.534;18.700;2023-11-19T13:27:15;12.50;1.00
25512;DHT22;13414;44.534;18.700;2023-11-19T13:30:12;12.40;1.00
25512;DHT22;13414;44.534;18.700;2023-11-19T13:32:45;12.40;1.00
25512;DHT22;13414;44.534;18.700;2023-11-19T13:35:15;12.30;1.00
25512;DHT22;13414;44.534;18.700;2023-11-19T13:37:45;12.20;1.00
25512;DHT22;13414;44.534;18.700;2023-11-19T13:40:14;12.10;1.00
25512;DHT22;13414;44.534;18.700;2023-11-19T13:42:45;12.20;1.00
25512;DHT22;13414;44.534;18.700;2023-11-19T13:45:14;12.10;1.00
25512;DHT22;13414;44.534;18.700;2023-11-19T13:47:46;12.00;1.00
25512;DHT22;13414;44.534;18.700;2023-11-19T13:50:16;11.90;1.00
25512;DHT22;13414;44.534;18.700;2023-11-19T13:52:45;11.80;1.00
25512;DHT22;13414;44.534;18.700;2023-11-19T13:55:14;11.80;1.00
25512;DHT22;13414;44.534;18.700;2023-11-19T13:57:44;11.90;1.00
25512;DHT22;13414;44.534;18.700;2023-11-19T14:00:13;11.90;1.00
25512;DHT22;13414;44.534;18.700;2023-11-19T14:02:42;11.90;1.00
25512;DHT22;13414;44.534;18.700;2023-11-19T14:05:11;12.00;1.00
25512;DHT22;13414;44.534;18.700;2023-11-19T14:07:41;12.00;1.00
25512;DHT22;13414;44.534;18.700;2023-11-19T14:10:10;12.00;1.00
25512;DHT22;13414;44.534;18.700;2023-11-19T14:12:38;12.10;1.00
25512;DHT22;13414;44.534;18.700;2023-11-19T14:15:08;12.10;1.00
25512;DHT22;13414;44.534;18.700;2023-11-19T14:17:38;12.10;1.00
25512;DHT22;13414;44.534;18.700;2023-11-19T14:20:07;12.00;1.00
25512;DHT22;13414;44.534;18.700;2023-11-19T14:22:40;11.90;1.00
25512;DHT22;13414;44.534;18.700;2023-11-19T14:25:13;11.70;1.00
25512;DHT22;13414;44.534;18.700;2023-11-19T14:27:42;11.60;1.00
25512;DHT22;13414;44.534;18.700;2023-11-19T14:30:11;11.40;1.00
25512;DHT22;13414;44.534;18.700;2023-11-19T14:32:40;11.30;1.00
25512;DHT22;13414;44.534;18.700;2023-11-19T14:35:10;11.10;1.00
25512;DHT22;13414;44.534;18.700;2023-11-19T14:37:39;10.90;1.00
25512;DHT22;13414;44.534;18.700;2023-11-19T14:40:08;10.80;1.00
25512;DHT22;13414;44.534;18.700;2023-11-19T14:42:37;10.60;1.00
25512;DHT22;13414;44.534;18.700;2023-11-19T14:45:07;10.50;1.00
25512;DHT22;13414;44.534;18.700;2023-11-19T14:47:38;10.40;1.00
25512;DHT22;13414;44.534;18.700;2023-11-19T14:50:06;10.40;1.00
25512;DHT22;13414;44.534;18.700;2023-11-19T14:52:35;10.30;1.00
25512;DHT22;13414;44.534;18.700;2023-11-19T14:55:05;10.20;1.00
25512;DHT22;13414;44.534;18.700;2023-11-19T14:57:33;10.10;1.00
25512;DHT22;13414;44.534;18.700;2023-11-19T15:00:02;10.10;1.00
25512;DHT22;13414;44.534;18.700;2023-11-19T15:02:40;10.00;1.00
25512;DHT22;13414;44.534;18.700;2023-11-19T15:05:08;9.90;1.00
25512;DHT22;13414;44.534;18.700;2023-11-19T15:07:37;9.80;1.00
25512;DHT22;13414;44.534;18.700;2023-11-19T15:10:13;9.70;1.00
25512;DHT22;13414;44.534;18.700;2023-11-19T15:12:41;9.50;1.00
25512;DHT22;13414;44.534;18.700;2023-11-19T15:15:12;9.40;1.00
25512;DHT22;13414;44.534;18.700;2023-11-19T15:17:40;9.30;62.50
25512;DHT22;13414;44.534;18.700;2023-11-19T15:20:09;9.30;72.30
25512;DHT22;13414;44.534;18.700;2023-11-19T15:22:39;9.20;99.90
25512;DHT22;13414;44.534;18.700;2023-11-19T15:25:09;9.10;99.90
25512;DHT22;13414;44.534;18.700;2023-11-19T15:27:37;9.10;99.90
25512;DHT22;13414;44.534;18.700;2023-11-19T15:30:09;8.90;99.90
25512;DHT22;13414;44.534;18.700;2023-11-19T15:32:37;8.80;99.90
25512;DHT22;13414;44.534;18.700;2023-11-19T15:35:06;8.60;1.00
25512;DHT22;13414;44.534;18.700;2023-11-19T15:37:34;8.50;1.00
25512;DHT22;13414;44.534;18.700;2023-11-19T15:40:05;8.40;1.00
25512;DHT22;13414;44.534;18.700;2023-11-19T15:42:36;8.20;99.90
25512;DHT22;13414;44.534;18.700;2023-11-19T15:45:13;8.20;1.00
25512;DHT22;13414;44.534;18.700;2023-11-19T15:47:43;8.20;94.20
25512;DHT22;13414;44.534;18.700;2023-11-19T15:50:25;8.10;99.90
25512;DHT22;13414;44.534;18.700;2023-11-19T16:01:06;7.60;1.00
25512;DHT22;13414;44.534;18.700;2023-11-19T16:03:38;7.60;1.00
25512;DHT22;13414;44.534;18.700;2023-11-19T16:06:09;7.60;1.00
25512;DHT22;13414;44.534;18.700;2023-11-19T16:08:42;7.40;99.90
25512;DHT22;13414;44.534;18.700;2023-11-19T16:11:37;7.40;99.90
25512;DHT22;13414;44.534;18.700;2023-11-19T16:14:10;7.30;99.90
25512;DHT22;13414;44.534;18.700;2023-11-19T16:16:40;7.20;1.00
25512;DHT22;13414;44.534;18.700;2023-11-19T16:19:08;7.00;1.00
25512;DHT22;13414;44.534;18.700;2023-11-19T16:21:36;7.10;99.90
25512;DHT22;13414;44.534;18.700;2023-11-19T16:24:13;7.00;99.90
25512;DHT22;13414;44.534;18.700;2023-11-19T16:27:06;7.00;99.90
25512;DHT22;13414;44.534;18.700;2023-11-19T16:29:38;7.00;99.90
25512;DHT22;13414;44.534;18.700;2023-11-19T16:32:09;6.90;1.00
25512;DHT22;13414;44.534;18.700;2023-11-19T16:34:38;7.00;1.00
25512;DHT22;13414;44.534;18.700;2023-11-19T16:37:08;6.80;1.00
25512;DHT22;13414;44.534;18.700;2023-11-19T16:39:47;6.70;1.00
25512;DHT22;13414;44.534;18.700;2023-11-19T16:42:15;6.60;99.90
25512;DHT22;13414;44.534;18.700;2023-11-19T16:44:46;6.50;1.00
25512;DHT22;13414;44.534;18.700;2023-11-19T16:47:19;6.40;99.90
25512;DHT22;13414;44.534;18.700;2023-11-19T16:49:48;6.30;99.90
25512;DHT22;13414;44.534;18.700;2023-11-19T16:52:17;6.20;1.00
25512;DHT22;13414;44.534;18.700;2023-11-19T16:54:46;6.20;1.00
25512;DHT22;13414;44.534;18.700;2023-11-19T16:57:16;6.10;47.20
25512;DHT22;13414;44.534;18.700;2023-11-19T16:59:47;6.10;1.00
25512;DHT22;13414;44.534;18.700;2023-11-19T17:02:20;6.20;99.90
25512;DHT22;13414;44.534;18.700;2023-11-19T17:04:48;6.20;1.00
25512;DHT22;13414;44.534;18.700;2023-11-19T17:07:19;6.20;1.00
25512;DHT22;13414;44.534;18.700;2023-11-19T17:09:48;6.20;99.90
25512;DHT22;13414;44.534;18.700;2023-11-19T17:12:17;6.20;1.00
25512;DHT22;13414;44.534;18.700;2023-11-19T17:14:45;6.00;1.00
25512;DHT22;13414;44.534;18.700;2023-11-19T17:17:13;5.90;99.90
25512;DHT22;13414;44.534;18.700;2023-11-19T17:19:43;5.80;99.90
25512;DHT22;13414;44.534;18.700;2023-11-19T17:22:10;5.70;1.00
25512;DHT22;13414;44.534;18.700;2023-11-19T17:24:38;5.60;1.00
25512;DHT22;13414;44.534;18.700;2023-11-19T17:27:06;5.50;1.00
25512;DHT22;13414;44.534;18.700;2023-11-19T17:29:48;5.50;1.00
25512;DHT22;13414;44.534;18.700;2023-11-19T17:32:16;5.60;99.90
25512;DHT22;13414;44.534;18.700;2023-11-19T17:34:45;5.60;99.90
25512;DHT22;13414;44.534;18.700;2023-11-19T17:37:13;5.70;1.00
25512;DHT22;13414;44.534;18.700;2023-11-19T17:39:42;5.60;1.00
25512;DHT22;13414;44.534;18.700;2023-11-19T17:42:10;5.50;1.00
25512;DHT22;13414;44.534;18.700;2023-11-19T17:44:38;5.40;99.90
25512;DHT22;13414;44.534;18.700;2023-11-19T17:47:07;5.40;99.90
25512;DHT22;13414;44.534;18.700;2023-11-19T17:49:35;5.40;99.90
25512;DHT22;13414;44.534;18.700;2023-11-19T17:52:07;5.40;99.90
25512;DHT22;13414;44.534;18.700;2023-11-19T17:54:36;5.40;99.90
25512;DHT22;13414;44.534;18.700;2023-11-19T17:57:05;5.30;99.90
25512;DHT22;13414;44.534;18.700;2023-11-19T17:59:33;5.30;99.90
25512;DHT22;13414;44.534;18.700;2023-11-19T18:02:01;5.30;99.90
25512;DHT22;13414;44.534;18.700;2023-11-19T18:04:32;5.30;99.90
25512;DHT22;13414;44.534;18.700;2023-11-19T18:07:03;5.20;99.90
25512;DHT22;13414;44.534;18.700;2023-11-19T18:09:35;5.10;99.90
25512;DHT22;13414;44.534;18.700;2023-11-19T18:12:30;4.90;1.00
25512;DHT22;13414;44.534;18.700;2023-11-19T18:15:14;4.90;1.00
25512;DHT22;13414;44.534;18.700;2023-11-19T18:17:45;4.90;1.00
25512;DHT22;13414;44.534;18.700;2023-11-19T18:20:13;4.80;1.00
25512;DHT22;13414;44.534;18.700;2023-11-19T18:22:45;4.80;1.00
25512;DHT22;13414;44.534;18.700;2023-11-19T18:25:15;4.80;1.00
25512;DHT22;13414;44.534;18.700;2023-11-19T18:27:46;4.80;1.00
25512;DHT22;13414;44.534;18.700;2023-11-19T18:30:16;4.80;1.00
25512;DHT22;13414;44.534;18.700;2023-11-19T18:32:47;4.70;1.00
25512;DHT22;13414;44.534;18.700;2023-11-19T18:35:15;4.70;1.00
25512;DHT22;13414;44.534;18.700;2023-11-19T18:37:49;4.70;1.00
25512;DHT22;13414;44.534;18.700;2023-11-19T18:40:19;4.70;1.00
25512;DHT22;13414;44.534;18.700;2023-11-19T18:42:47;4.70;1.00
25512;DHT22;13414;44.534;18.700;2023-11-19T18:45:17;4.70;1.00
25512;DHT22;13414;44.534;18.700;2023-11-19T18:47:47;4.70;1.00
25512;DHT22;13414;44.534;18.700;2023-11-19T18:50:16;4.60;1.00
25512;DHT22;13414;44.534;18.700;2023-11-19T18:52:44;4.50;1.00
25512;DHT22;13414;44.534;18.700;2023-11-19T18:55:12;4.60;1.00
25512;DHT22;13414;44.534;18.700;2023-11-19T18:57:46;4.40;1.00
25512;DHT22;13414;44.534;18.700;2023-11-19T19:00:15;4.40;1.00
25512;DHT22;13414;44.534;18.700;2023-11-19T19:02:43;4.30;1.00
25512;DHT22;13414;44.534;18.700;2023-11-19T19:05:15;4.20;1.00
25512;DHT22;13414;44.534;18.700;2023-11-19T19:07:48;4.30;1.00
25512;DHT22;13414;44.534;18.700;2023-11-19T19:10:18;4.20;1.00
25512;DHT22;13414;44.534;18.700;2023-11-19T19:12:49;4.10;1.00
25512;DHT22;13414;44.534;18.700;2023-11-19T19:15:17;4.10;1.00
25512;DHT22;13414;44.534;18.700;2023-11-19T19:17:45;4.10;1.00
25512;DHT22;13414;44.534;18.700;2023-11-19T19:20:15;3.90;1.00
25512;DHT22;13414;44.534;18.700;2023-11-19T19:22:44;3.80;66.20
25512;DHT22;13414;44.534;18.700;2023-11-19T19:25:12;3.90;99.90
25512;DHT22;13414;44.534;18.700;2023-11-19T19:27:42;4.00;59.20
25512;DHT22;13414;44.534;18.700;2023-11-19T19:30:12;4.00;46.20
25512;DHT22;13414;44.534;18.700;2023-11-19T19:32:40;3.90;15.20
25512;DHT22;13414;44.534;18.700;2023-11-19T19:35:10;3.80;74.60
25512;DHT22;13414;44.534;18.700;2023-11-19T19:37:38;3.70;99.90
25512;DHT22;13414;44.534;18.700;2023-11-19T19:40:06;3.80;99.90
25512;DHT22;13414;44.534;18.700;2023-11-19T19:42:37;3.80;99.90
25512;DHT22;13414;44.534;18.700;2023-11-19T19:45:06;3.60;99.90
25512;DHT22;13414;44.534;18.700;2023-11-19T19:47:38;3.60;99.90
25512;DHT22;13414;44.534;18.700;2023-11-19T19:50:06;3.50;99.90
25512;DHT22;13414;44.534;18.700;2023-11-19T19:52:36;3.70;99.90
25512;DHT22;13414;44.534;18.700;2023-11-19T19:55:05;3.60;99.90
25512;DHT22;13414;44.534;18.700;2023-11-19T19:57:33;3.60;99.90
25512;DHT22;13414;44.534;18.700;2023-11-19T20:00:02;3.50;99.90
25512;DHT22;13414;44.534;18.700;2023-11-19T20:02:38;3.50;99.90
25512;DHT22;13414;44.534;18.700;2023-11-19T20:05:07;3.50;99.90
25512;DHT22;13414;44.534;18.700;2023-11-19T20:07:38;3.50;99.90
25512;DHT22;13414;44.534;18.700;2023-11-19T20:10:06;3.50;99.90
25512;DHT22;13414;44.534;18.700;2023-11-19T20:12:37;3.40;99.90
25512;DHT22;13414;44.534;18.700;2023-11-19T20:15:08;3.40;99.90
25512;DHT22;13414;44.534;18.700;2023-11-19T20:17:41;3.30;99.90
25512;DHT22;13414;44.534;18.700;2023-11-19T20:20:10;3.10;99.90
25512;DHT22;13414;44.534;18.700;2023-11-19T20:22:39;3.10;99.90
25512;DHT22;13414;44.534;18.700;2023-11-19T20:25:13;2.90;99.90
25512;DHT22;13414;44.534;18.700;2023-11-19T20:27:42;2.90;99.90
25512;DHT22;13414;44.534;18.700;2023-11-19T20:30:10;3.10;99.90
25512;DHT22;13414;44.534;18.700;2023-11-19T20:32:45;3.20;99.90
25512;DHT22;13414;44.534;18.700;2023-11-19T20:35:13;3.30;99.90
25512;DHT22;13414;44.534;18.700;2023-11-19T20:37:42;3.20;99.90
25512;DHT22;13414;44.534;18.700;2023-11-19T20:40:10;3.30;99.90
25512;DHT22;13414;44.534;18.700;2023-11-19T20:42:39;3.20;99.90
25512;DHT22;13414;44.534;18.700;2023-11-19T20:45:09;3.20;99.90
25512;DHT22;13414;44.534;18.700;2023-11-19T20:47:49;3.20;99.90
25512;DHT22;13414;44.534;18.700;2023-11-19T20:50:18;3.00;99.90
25512;DHT22;13414;44.534;18.700;2023-11-19T20:52:53;2.80;99.90
25512;DHT22;13414;44.534;18.700;2023-11-19T20:55:25;2.70;99.90
25512;DHT22;13414;44.534;18.700;2023-11-19T20:57:58;2.50;99.90
25512;DHT22;13414;44.534;18.700;2023-11-19T21:00:26;2.50;99.90
25512;DHT22;13414;44.534;18.700;2023-11-19T21:02:56;2.80;99.90
25512;DHT22;13414;44.534;18.700;2023-11-19T21:05:24;2.90;99.90
25512;DHT22;13414;44.534;18.700;2023-11-19T21:07:52;2.90;99.90
25512;DHT22;13414;44.534;18.700;2023-11-19T21:10:20;2.90;99.90
25512;DHT22;13414;44.534;18.700;2023-11-19T21:37:34;2.70;99.90
25512;DHT22;13414;44.534;18.700;2023-11-19T21:40:28;2.80;99.90
25512;DHT22;13414;44.534;18.700;2023-11-19T21:43:18;2.90;99.90
25512;DHT22;13414;44.534;18.700;2023-11-19T21:45:58;3.00;99.90
25512;DHT22;13414;44.534;18.700;2023-11-19T21:48:32;2.90;99.90
25512;DHT22;13414;44.534;18.700;2023-11-19T21:51:03;2.90;99.90
25512;DHT22;13414;44.534;18.700;2023-11-19T21:53:32;2.90;99.90
25512;DHT22;13414;44.534;18.700;2023-11-19T21:56:00;2.80;99.90
25512;DHT22;13414;44.534;18.700;2023-11-19T21:58:28;2.70;99.90
25512;DHT22;13414;44.534;18.700;2023-11-19T22:00:57;2.60;99.90
25512;DHT22;13414;44.534;18.700;2023-11-19T22:03:25;2.50;99.90
25512;DHT22;13414;44.534;18.700;2023-11-19T22:05:54;2.60;99.90
25512;DHT22;13414;44.534;18.700;2023-11-19T22:08:22;2.60;99.90
25512;DHT22;13414;44.534;18.700;2023-11-19T22:10:51;2.60;99.90
25512;DHT22;13414;44.534;18.700;2023-11-19T22:13:21;2.60;99.90
25512;DHT22;13414;44.534;18.700;2023-11-19T22:15:51;2.60;99.90
25512;DHT22;13414;44.534;18.700;2023-11-19T22:18:21;2.60;99.90
25512;DHT22;13414;44.534;18.700;2023-11-19T22:20:50;2.60;99.90
25512;DHT22;13414;44.534;18.700;2023-11-19T22:23:18;2.70;99.90
25512;DHT22;13414;44.534;18.700;2023-11-19T22:25:45;2.60;99.90
25512;DHT22;13414;44.534;18.700;2023-11-19T22:28:15;2.50;99.90
25512;DHT22;13414;44.534;18.700;2023-11-19T22:30:46;2.40;99.90
25512;DHT22;13414;44.534;18.700;2023-11-19T22:33:14;2.20;99.90
25512;DHT22;13414;44.534;18.700;2023-11-19T22:35:45;2.30;99.90
25512;DHT22;13414;44.534;18.700;2023-11-19T22:38:13;2.40;99.90
25512;DHT22;13414;44.534;18.700;2023-11-19T22:40:43;2.50;99.90
25512;DHT22;13414;44.534;18.700;2023-11-19T22:43:14;2.60;99.90
25512;DHT22;13414;44.534;18.700;2023-11-19T22:45:42;2.60;99.90
25512;DHT22;13414;44.534;18.700;2023-11-19T22:48:12;2.60;99.90
25512;DHT22;13414;44.534;18.700;2023-11-19T22:50:39;2.60;99.90
25512;DHT22;13414;44.534;18.700;2023-11-19T22:53:07;2.60;99.90
25512;DHT22;13414;44.534;18.700;2023-11-19T22:55:35;2.60;99.90
25512;DHT22;13414;44.534;18.700;2023-11-19T22:58:03;2.60;99.90
25512;DHT22;13414;44.534;18.700;2023-11-19T23:00:32;2.70;99.90
25512;DHT22;13414;44.534;18.700;2023-11-19T23:03:02;2.70;99.90
25512;DHT22;13414;44.534;18.700;2023-11-19T23:05:30;2.70;99.90
25512;DHT22;13414;44.534;18.700;2023-11-19T23:08:01;2.80;99.90
25512;DHT22;13414;44.534;18.700;2023-11-19T23:10:28;2.80;99.90
25512;DHT22;13414;44.534;18.700;2023-11-19T23:12:56;2.60;99.90
25512;DHT22;13414;44.534;18.700;2023-11-19T23:15:23;2.50;99.90
25512;DHT22;13414;44.534;18.700;2023-11-19T23:17:53;2.40;99.90
25512;DHT22;13414;44.534;18.700;2023-11-19T23:20:20;2.40;99.90
25512;DHT22;13414;44.534;18.700;2023-11-19T23:22:49;2.40;99.90
25512;DHT22;13414;44.534;18.700;2023-11-19T23:25:18;2.50;99.90
25512;DHT22;13414;44.534;18.700;2023-11-19T23:27:45;2.60;99.90
25512;DHT22;13414;44.534;18.700;2023-11-19T23:30:15;2.60;99.90
25512;DHT22;13414;44.534;18.700;2023-11-19T23:32:43;2.70;99.90
25512;DHT22;13414;44.534;18.700;2023-11-19T23:35:12;2.70;99.90
25512;DHT22;13414;44.534;18.700;2023-11-19T23:37:42;2.70;99.90
25512;DHT22;13414;44.534;18.700;2023-11-19T23:40:13;2.70;99.90
25512;DHT22;13414;44.534;18.700;2023-11-19T23:42:42;2.70;99.90
25512;DHT22;13414;44.534;18.700;2023-11-19T23:45:10;2.70;99.90
25512;DHT22;13414;44.534;18.700;2023-11-19T23:47:38;2.70;99.90
25512;DHT22;13414;44.534;18.700;2023-11-19T23:50:08;2.80;99.90
25512;DHT22;13414;44.534;18.700;2023-11-19T23:52:40;2.90;99.90
25512;DHT22;13414;44.534;18.700;2023-11-19T23:55:08;3.10;99.90
25512;DHT22;13414;44.534;18.700;2023-11-19T23:57:37;3.00;99.90
